createdAt,value
2022-12-05T00:02:17.553Z,60.62
2022-12-05T00:04:50.633Z,60.65
2022-12-05T00:07:23.770Z,60.61
2022-12-05T00:09:57.234Z,60.64
2022-12-05T00:12:30.511Z,60.60
2022-12-05T00:15:03.618Z,60.66
2022-12-05T00:17:36.867Z,60.67
2022-12-05T00:20:12.165Z,60.69
2022-12-05T00:22:45.353Z,60.75
2022-12-05T00:25:18.426Z,60.79
2022-12-05T00:27:51.504Z,60.78
2022-12-05T00:30:24.910Z,60.79
2022-12-05T00:32:58.552Z,60.79
2022-12-05T00:35:31.786Z,60.82
2022-12-05T00:38:04.883Z,60.86
2022-12-05T00:40:38.858Z,60.89
2022-12-05T00:43:11.702Z,60.90
2022-12-05T00:45:44.909Z,60.95
2022-12-05T00:48:17.987Z,60.91
2022-12-05T00:50:51.269Z,60.95
2022-12-05T00:53:25.050Z,60.93
2022-12-05T00:56:00.250Z,60.95
2022-12-05T00:58:34.468Z,60.91
2022-12-05T01:01:13.787Z,60.91
2022-12-05T01:03:48.919Z,60.91
2022-12-05T01:06:23.489Z,60.93
2022-12-05T01:08:58.429Z,60.96
2022-12-05T01:11:37.628Z,61.03
2022-12-05T01:14:08.970Z,61.01
2022-12-05T01:16:44.819Z,61.03
2022-12-05T01:19:20.720Z,61.07
2022-12-05T01:21:55.658Z,61.04
2022-12-05T01:24:30.353Z,61.03
2022-12-05T01:27:04.140Z,60.95
2022-12-05T01:29:37.906Z,60.97
2022-12-05T01:32:11.653Z,61.00
2022-12-05T01:34:45.555Z,61.00
2022-12-05T01:37:19.155Z,61.02
2022-12-05T01:39:52.954Z,61.06
2022-12-05T01:42:26.754Z,61.07
2022-12-05T01:45:07.717Z,61.11
2022-12-05T01:47:41.463Z,61.14
2022-12-05T01:50:15.886Z,61.15
2022-12-05T01:52:49.764Z,61.14
2022-12-05T01:55:23.796Z,61.17
2022-12-05T01:57:59.138Z,61.21
2022-12-05T02:00:33.873Z,61.19
2022-12-05T02:03:11.031Z,61.25
2022-12-05T02:05:45.236Z,61.26
2022-12-05T02:08:20.032Z,61.25
2022-12-05T02:10:56.642Z,61.21
2022-12-05T02:13:55.528Z,61.20
2022-12-05T02:16:35.018Z,61.19
2022-12-05T02:19:15.572Z,61.20
2022-12-05T02:21:59.051Z,61.25
2022-12-05T02:28:11.877Z,61.20
2022-12-05T02:30:48.282Z,61.22
2022-12-05T02:33:25.246Z,61.21
2022-12-05T02:36:01.902Z,61.17
2022-12-05T02:38:38.822Z,61.20
2022-12-05T02:41:18.008Z,61.17
2022-12-05T02:43:54.999Z,61.14
2022-12-05T02:46:31.355Z,61.16
2022-12-05T02:49:07.593Z,61.13
2022-12-05T02:51:44.857Z,61.10
2022-12-05T02:54:21.455Z,61.14
2022-12-05T02:56:56.339Z,61.15
2022-12-05T02:59:30.412Z,61.15
2022-12-05T03:02:04.363Z,61.17
2022-12-05T03:04:39.032Z,61.10
2022-12-05T03:07:15.011Z,61.05
2022-12-05T03:09:51.817Z,61.05
2022-12-05T03:12:28.235Z,60.99
2022-12-05T03:15:04.889Z,60.99
2022-12-05T03:17:41.183Z,61.02
2022-12-05T03:20:19.316Z,61.02
2022-12-05T03:22:56.107Z,61.04
2022-12-05T03:25:33.049Z,61.07
2022-12-05T03:28:09.741Z,61.08
2022-12-05T03:30:43.827Z,61.01
2022-12-05T03:33:20.239Z,61.00
2022-12-05T03:35:56.887Z,61.01
2022-12-05T03:38:33.898Z,61.01
2022-12-05T03:41:11.304Z,61.00
2022-12-05T03:43:44.284Z,61.01
2022-12-05T03:46:24.253Z,60.95
2022-12-05T03:49:00.909Z,60.92
2022-12-05T03:51:37.779Z,60.96
2022-12-05T03:54:13.838Z,60.98
2022-12-05T03:56:50.673Z,61.00
2022-12-05T03:59:26.667Z,61.05
2022-12-05T04:02:02.914Z,61.02
2022-12-05T04:04:38.508Z,61.05
2022-12-05T04:07:13.782Z,61.02
2022-12-05T04:09:50.155Z,61.05
2022-12-05T04:12:27.201Z,61.08
2022-12-05T04:15:03.345Z,61.05
2022-12-05T04:17:39.101Z,61.05
2022-12-05T04:20:34.246Z,61.09
2022-12-05T04:23:09.022Z,61.10
2022-12-05T04:25:46.341Z,61.11
2022-12-05T04:28:24.406Z,61.16
2022-12-05T04:31:00.746Z,61.12
2022-12-05T04:33:37.787Z,61.14
2022-12-05T04:36:16.074Z,61.13
2022-12-05T04:38:52.599Z,61.12
2022-12-05T04:41:28.342Z,61.13
2022-12-05T04:44:04.564Z,61.12
2022-12-05T04:46:39.809Z,61.08
2022-12-05T04:49:16.792Z,61.11
2022-12-05T04:51:53.607Z,61.14
2022-12-05T04:54:29.953Z,61.09
2022-12-05T04:57:05.968Z,61.09
2022-12-05T04:59:38.985Z,61.10
2022-12-05T05:02:14.388Z,61.05
2022-12-05T05:04:51.368Z,61.05
2022-12-05T05:07:25.142Z,61.08
2022-12-05T05:09:59.323Z,61.17
2022-12-05T05:12:33.933Z,61.17
2022-12-05T05:15:08.593Z,61.19
2022-12-05T05:17:41.956Z,61.15
2022-12-05T05:20:27.906Z,61.15
2022-12-05T05:23:01.292Z,61.19
2022-12-05T05:25:34.405Z,61.19
2022-12-05T05:28:08.290Z,61.23
2022-12-05T05:30:41.404Z,61.23
2022-12-05T05:33:14.839Z,61.23
2022-12-05T05:35:47.990Z,61.17
2022-12-05T05:38:21.079Z,61.19
2022-12-05T05:40:54.316Z,61.13
2022-12-05T05:43:27.472Z,61.09
2022-12-05T05:46:00.560Z,61.06
2022-12-05T05:48:33.666Z,61.06
2022-12-05T05:51:09.571Z,61.02
2022-12-05T05:53:42.423Z,61.01
2022-12-05T05:56:21.474Z,61.00
2022-12-05T05:58:57.280Z,60.97
2022-12-05T06:01:31.290Z,60.97
2022-12-05T06:04:04.464Z,60.80
2022-12-05T06:06:37.672Z,60.75
2022-12-05T06:09:11.142Z,60.60
2022-12-05T06:11:43.960Z,60.70
2022-12-05T06:14:17.112Z,60.55
2022-12-05T06:16:50.305Z,60.45
2022-12-05T06:19:23.456Z,60.48
2022-12-05T06:21:56.243Z,60.83
2022-12-05T06:24:29.784Z,60.57
2022-12-05T06:27:02.931Z,59.64
2022-12-05T06:29:36.746Z,58.34
2022-12-05T06:32:10.029Z,57.28
2022-12-05T06:34:43.111Z,57.35
2022-12-05T06:37:16.350Z,57.83
2022-12-05T06:39:49.520Z,58.02
2022-12-05T06:42:23.846Z,57.67
2022-12-05T06:44:57.006Z,56.71
2022-12-05T06:47:30.068Z,56.41
2022-12-05T06:50:03.212Z,55.34
2022-12-05T06:52:36.297Z,54.70
2022-12-05T06:55:10.983Z,54.49
2022-12-05T06:57:43.899Z,54.61
2022-12-05T07:00:36.445Z,53.35
2022-12-05T07:03:12.731Z,52.36
2022-12-05T07:05:45.902Z,51.53
2022-12-05T07:08:19.137Z,52.12
2022-12-05T07:10:55.307Z,53.01
2022-12-05T07:13:28.596Z,53.29
2022-12-05T07:16:02.451Z,53.87
2022-12-05T07:18:35.968Z,53.92
2022-12-05T07:21:12.884Z,54.13
2022-12-05T07:23:50.020Z,54.30
2022-12-05T07:26:24.877Z,54.61
2022-12-05T07:28:59.023Z,54.79
2022-12-05T07:31:34.121Z,54.37
2022-12-05T07:34:07.607Z,53.13
2022-12-05T07:36:40.738Z,52.56
2022-12-05T07:39:13.807Z,52.54
2022-12-05T07:41:46.975Z,52.00
2022-12-05T07:44:21.937Z,51.99
2022-12-05T07:46:55.607Z,50.88
2022-12-05T07:49:29.401Z,50.56
2022-12-05T07:52:02.767Z,50.83
2022-12-05T07:54:44.430Z,50.75
2022-12-05T07:57:21.442Z,49.81
2022-12-05T07:59:55.515Z,49.91
2022-12-05T08:02:29.277Z,50.07
2022-12-05T08:05:02.877Z,49.00
2022-12-05T08:07:36.771Z,48.15
2022-12-05T08:10:12.000Z,48.78
2022-12-05T08:12:45.527Z,47.60
2022-12-05T08:15:18.893Z,48.00
2022-12-05T08:17:53.767Z,46.50
2022-12-05T08:20:27.248Z,47.26
2022-12-05T08:23:00.755Z,46.78
2022-12-05T08:25:35.367Z,45.90
2022-12-05T08:28:08.871Z,46.71
2022-12-05T08:30:42.274Z,46.60
2022-12-05T08:33:15.599Z,45.40
2022-12-05T08:35:49.307Z,44.80
2022-12-05T08:38:23.607Z,43.83
2022-12-05T08:40:57.091Z,43.19
2022-12-05T08:43:31.319Z,43.06
2022-12-05T08:46:05.956Z,42.77
2022-12-05T08:48:39.893Z,42.95
2022-12-05T08:51:14.915Z,43.77
2022-12-05T08:53:48.839Z,43.51
2022-12-05T08:56:26.859Z,43.42
2022-12-05T08:59:04.792Z,42.43
2022-12-05T09:01:34.073Z,43.38
2022-12-05T09:04:08.974Z,43.85
2022-12-05T09:06:43.043Z,43.82
2022-12-05T09:09:18.232Z,44.57
2022-12-05T09:11:52.161Z,45.64
2022-12-05T09:14:26.177Z,45.42
2022-12-05T09:17:00.142Z,45.59
2022-12-05T09:19:33.795Z,45.11
2022-12-05T09:22:07.539Z,45.41
2022-12-05T09:24:41.305Z,45.27
2022-12-05T09:27:14.752Z,45.31
2022-12-05T09:29:48.209Z,44.70
2022-12-05T09:32:21.783Z,44.60
2022-12-05T09:34:55.754Z,44.90
2022-12-05T09:37:42.914Z,45.89
2022-12-05T09:40:05.107Z,45.97
2022-12-05T09:42:50.647Z,45.40
2022-12-05T09:45:31.702Z,45.83
2022-12-05T09:48:08.857Z,45.18
2022-12-05T09:50:47.634Z,44.80
2022-12-05T09:53:28.329Z,44.40
2022-12-05T09:56:04.959Z,44.40
2022-12-05T09:58:44.979Z,44.99
2022-12-05T10:01:35.543Z,44.47
2022-12-05T10:04:30.303Z,44.94
2022-12-05T10:07:08.056Z,45.36
2022-12-05T10:09:56.470Z,45.07
2022-12-05T10:12:46.373Z,44.65
2022-12-05T10:15:22.637Z,44.89
2022-12-05T10:18:00.246Z,45.87
2022-12-05T10:20:36.692Z,46.03
2022-12-05T10:23:34.268Z,45.86
2022-12-05T10:25:49.977Z,45.98
2022-12-05T10:28:27.199Z,46.29
2022-12-05T10:31:04.079Z,45.66
2022-12-05T10:33:41.191Z,45.42
2022-12-05T10:36:16.776Z,46.08
2022-12-05T10:38:50.891Z,46.33
2022-12-05T10:41:24.605Z,46.96
2022-12-05T10:44:00.627Z,46.68
2022-12-05T10:46:34.073Z,47.20
2022-12-05T10:49:12.556Z,47.31
2022-12-05T10:51:45.918Z,46.98
2022-12-05T10:54:22.885Z,46.73
2022-12-05T10:56:56.850Z,46.70
2022-12-05T10:59:46.317Z,46.99
2022-12-05T11:02:26.256Z,46.67
2022-12-05T11:05:00.510Z,46.63
2022-12-05T11:07:37.449Z,46.31
2022-12-05T11:10:26.339Z,46.13
2022-12-05T11:12:59.222Z,45.78
2022-12-05T11:15:33.453Z,44.81
2022-12-05T11:18:23.373Z,44.81
2022-12-05T11:20:57.069Z,45.60
2022-12-05T11:23:32.077Z,45.57
2022-12-05T11:26:05.527Z,45.16
2022-12-05T11:28:40.543Z,45.69
2022-12-05T11:31:29.605Z,45.80
2022-12-05T11:34:14.081Z,45.97
2022-12-05T11:36:50.895Z,46.25
2022-12-05T11:39:26.062Z,46.39
2022-12-05T11:42:08.174Z,46.31
2022-12-05T11:45:04.364Z,46.22
2022-12-05T11:47:47.774Z,46.42
2022-12-05T11:50:30.114Z,47.03
2022-12-05T11:53:11.069Z,46.70
2022-12-05T11:55:47.520Z,47.25
2022-12-05T11:58:30.347Z,47.02
2022-12-05T12:01:08.038Z,46.86
2022-12-05T12:03:53.185Z,47.12
2022-12-05T12:06:33.934Z,47.22
2022-12-05T12:09:26.378Z,47.31
2022-12-05T12:12:02.719Z,47.22
2022-12-05T12:14:39.846Z,47.43
2022-12-05T12:17:17.017Z,47.75
2022-12-05T12:20:04.946Z,47.67
2022-12-05T12:22:51.214Z,47.66
2022-12-05T12:25:29.802Z,47.65
2022-12-05T12:28:10.070Z,47.63
2022-12-05T12:30:50.976Z,47.76
2022-12-05T12:33:29.619Z,47.67
2022-12-05T12:36:07.797Z,47.86
2022-12-05T12:38:57.658Z,47.95
2022-12-05T12:41:46.417Z,48.04
2022-12-05T12:44:29.586Z,48.02
2022-12-05T12:47:05.519Z,48.38
2022-12-05T12:49:45.884Z,48.62
2022-12-05T12:52:21.960Z,48.68
2022-12-05T12:55:15.860Z,49.02
2022-12-05T12:58:05.374Z,49.29
2022-12-05T13:00:45.137Z,49.59
2022-12-05T13:03:23.717Z,49.95
2022-12-05T13:06:00.045Z,50.01
2022-12-05T13:08:36.467Z,50.12
2022-12-05T13:11:12.966Z,50.24
2022-12-05T13:13:49.993Z,50.31
2022-12-05T13:16:27.658Z,50.48
2022-12-05T13:19:02.378Z,50.70
2022-12-05T13:21:36.862Z,50.80
2022-12-05T13:24:15.022Z,50.95
2022-12-05T13:26:51.799Z,51.26
2022-12-05T13:29:28.603Z,51.40
2022-12-05T13:32:03.681Z,51.47
2022-12-05T13:34:49.270Z,51.73
2022-12-05T13:37:43.109Z,52.01
2022-12-05T13:40:47.253Z,52.18
2022-12-05T13:43:23.097Z,52.40
2022-12-05T13:46:05.458Z,52.62
2022-12-05T13:48:41.931Z,52.74
2022-12-05T13:51:19.279Z,52.84
2022-12-05T13:54:00.868Z,52.95
2022-12-05T13:56:52.276Z,53.04
2022-12-05T14:00:06.027Z,53.12
2022-12-05T14:03:02.908Z,53.24
2022-12-05T14:05:42.852Z,53.40
2022-12-05T14:08:54.071Z,53.60
2022-12-05T14:11:27.311Z,53.61
2022-12-05T14:14:04.967Z,53.58
2022-12-05T14:16:49.729Z,53.65
2022-12-05T14:19:55.566Z,53.67
2022-12-05T14:22:38.928Z,53.67
2022-12-05T14:25:25.297Z,53.82
2022-12-05T14:28:01.437Z,53.88
2022-12-05T14:30:37.846Z,53.87
2022-12-05T14:33:18.060Z,53.95
2022-12-05T14:35:53.567Z,53.97
2022-12-05T14:38:30.074Z,54.04
2022-12-05T14:41:17.390Z,54.16
2022-12-05T14:43:54.234Z,54.15
2022-12-05T14:46:30.793Z,54.13
2022-12-05T14:49:54.283Z,54.22
2022-12-05T14:52:30.058Z,54.21
2022-12-05T14:55:07.276Z,54.17
2022-12-05T14:57:46.349Z,54.25
2022-12-05T15:00:24.497Z,54.14
2022-12-05T15:02:58.363Z,54.10
2022-12-05T15:05:34.916Z,54.04
2022-12-05T15:08:10.947Z,54.07
2022-12-05T15:10:45.788Z,54.17
2022-12-05T15:13:21.048Z,54.31
2022-12-05T15:15:58.961Z,54.34
2022-12-05T15:18:35.349Z,54.31
2022-12-05T15:21:12.741Z,54.29
2022-12-05T15:23:47.755Z,54.27
2022-12-05T15:29:06.601Z,54.25
2022-12-05T15:31:43.147Z,54.30
2022-12-05T15:34:19.434Z,54.32
2022-12-05T15:36:58.561Z,54.29
2022-12-05T15:39:33.173Z,54.32
2022-12-05T15:42:12.924Z,54.26
2022-12-05T15:44:46.263Z,54.28
2022-12-05T15:47:27.159Z,54.24
2022-12-05T15:50:01.532Z,54.17
2022-12-05T15:52:39.833Z,54.11
2022-12-05T15:55:18.691Z,54.25
2022-12-05T16:00:38.999Z,54.29
2022-12-05T16:03:15.521Z,54.20
2022-12-05T16:05:52.761Z,54.10
2022-12-05T16:08:28.189Z,54.09
2022-12-05T16:11:09.046Z,54.04
2022-12-05T16:13:47.548Z,54.00
2022-12-05T16:16:23.666Z,54.00
2022-12-05T16:18:58.248Z,53.93
2022-12-05T16:21:38.787Z,53.97
2022-12-05T16:24:20.748Z,53.95
2022-12-05T16:27:00.909Z,53.98
2022-12-05T16:29:36.248Z,54.04
2022-12-05T16:32:16.942Z,54.05
2022-12-05T16:34:50.425Z,54.08
2022-12-05T16:37:26.489Z,54.14
2022-12-05T16:40:00.115Z,54.13
2022-12-05T16:42:36.709Z,54.24
2022-12-05T16:45:14.042Z,54.14
2022-12-05T16:47:58.257Z,54.18
2022-12-05T16:50:36.411Z,54.19
2022-12-05T16:53:22.756Z,54.14
2022-12-05T16:55:56.458Z,54.13
2022-12-05T16:58:31.753Z,54.20
2022-12-05T17:01:06.927Z,54.17
2022-12-05T17:03:40.170Z,54.14
2022-12-05T17:06:13.560Z,54.16
2022-12-05T17:08:47.145Z,54.13
2022-12-05T17:11:24.837Z,54.11
2022-12-05T17:13:59.650Z,54.10
2022-12-05T17:16:33.102Z,54.00
2022-12-05T17:19:06.654Z,54.01
2022-12-05T17:21:42.108Z,54.05
2022-12-05T17:24:18.542Z,54.01
2022-12-05T17:26:54.258Z,53.94
2022-12-05T17:29:32.473Z,53.88
2022-12-05T17:32:02.865Z,53.89
2022-12-05T17:34:36.312Z,53.90
2022-12-05T17:37:09.645Z,53.84
2022-12-05T17:39:42.900Z,53.78
2022-12-05T17:42:16.040Z,53.77
2022-12-05T17:44:49.624Z,53.73
2022-12-05T17:47:23.551Z,53.73
2022-12-05T17:49:57.085Z,53.82
2022-12-05T17:52:31.135Z,54.07
2022-12-05T17:55:04.598Z,54.21
2022-12-05T17:57:37.906Z,54.24
2022-12-05T18:00:14.768Z,54.26
2022-12-05T18:02:48.364Z,54.33
2022-12-05T18:05:21.820Z,54.41
2022-12-05T18:07:55.230Z,54.53
2022-12-05T18:10:29.719Z,54.69
2022-12-05T18:13:03.272Z,54.76
2022-12-05T18:15:41.034Z,54.79
2022-12-05T18:18:15.612Z,54.92
2022-12-05T18:20:48.944Z,55.05
2022-12-05T18:23:22.997Z,55.10
2022-12-05T18:26:00.987Z,55.11
2022-12-05T18:28:35.078Z,55.17
2022-12-05T18:31:11.189Z,55.09
2022-12-05T18:33:46.276Z,55.06
2022-12-05T18:36:20.882Z,55.13
2022-12-05T18:38:55.638Z,55.10
2022-12-05T18:41:28.813Z,55.17
2022-12-05T18:44:02.105Z,55.21
2022-12-05T18:46:35.498Z,55.23
2022-12-05T18:49:11.911Z,55.17
2022-12-05T18:51:45.216Z,55.15
2022-12-05T18:54:18.659Z,55.08
2022-12-05T18:56:52.852Z,55.02
2022-12-05T18:59:26.265Z,55.12
2022-12-05T19:02:00.595Z,55.21
2022-12-05T19:04:34.156Z,55.22
2022-12-05T19:07:07.443Z,55.22
2022-12-05T19:09:40.595Z,55.20
2022-12-05T19:12:16.846Z,55.22
2022-12-05T19:14:50.115Z,55.22
2022-12-05T19:17:24.923Z,55.24
2022-12-05T19:19:58.725Z,55.22
2022-12-05T19:22:35.374Z,55.18
2022-12-05T19:25:10.668Z,55.11
2022-12-05T19:27:43.973Z,55.02
2022-12-05T19:30:19.053Z,54.97
2022-12-05T19:32:53.278Z,54.95
2022-12-05T19:35:27.660Z,54.99
2022-12-05T19:38:01.938Z,55.03
2022-12-05T19:40:35.714Z,55.12
2022-12-05T19:43:08.809Z,55.19
2022-12-05T19:45:48.738Z,55.28
2022-12-05T19:48:24.001Z,55.34
2022-12-05T19:50:58.742Z,55.46
2022-12-05T19:53:33.708Z,55.53
2022-12-05T19:56:09.823Z,55.65
2022-12-05T19:58:43.167Z,55.65
2022-12-05T20:01:19.680Z,55.64
2022-12-05T20:03:55.689Z,55.52
2022-12-05T20:06:30.617Z,55.41
2022-12-05T20:09:04.224Z,55.37
2022-12-05T20:11:39.108Z,55.32
2022-12-05T20:14:14.534Z,55.26
2022-12-05T20:16:48.255Z,55.27
2022-12-05T20:19:21.796Z,55.28
2022-12-05T20:21:55.760Z,55.25
2022-12-05T20:24:29.120Z,55.40
2022-12-05T20:27:02.414Z,55.55
2022-12-05T20:29:38.336Z,55.50
2022-12-05T20:32:11.704Z,55.45
2022-12-05T20:34:46.767Z,55.49
2022-12-05T20:37:19.674Z,55.48
2022-12-05T20:39:52.932Z,55.42
2022-12-05T20:42:26.075Z,55.46
2022-12-05T20:44:59.433Z,55.47
2022-12-05T20:47:34.122Z,55.46
2022-12-05T20:50:09.054Z,55.57
2022-12-05T20:52:46.596Z,55.69
2022-12-05T20:55:17.623Z,55.63
2022-12-05T20:57:50.726Z,55.57
2022-12-05T21:00:24.439Z,55.59
2022-12-05T21:02:57.780Z,55.65
2022-12-05T21:05:31.074Z,55.81
2022-12-05T21:08:04.414Z,56.10
2022-12-05T21:10:37.693Z,56.17
2022-12-05T21:13:10.854Z,56.40
2022-12-05T21:15:44.162Z,56.46
2022-12-05T21:18:17.476Z,56.45
2022-12-05T21:20:58.944Z,56.36
2022-12-05T21:23:32.268Z,56.35
2022-12-05T21:26:07.724Z,56.37
2022-12-05T21:28:41.284Z,56.38
2022-12-05T21:31:16.429Z,56.52
2022-12-05T21:33:52.014Z,56.71
2022-12-05T21:36:25.701Z,56.69
2022-12-05T21:38:58.866Z,56.58
2022-12-05T21:41:32.110Z,56.50
2022-12-05T21:44:05.215Z,56.41
2022-12-05T21:46:38.634Z,56.40
2022-12-05T21:49:12.273Z,56.41
2022-12-05T21:51:45.479Z,56.36
2022-12-05T21:54:18.494Z,56.49
2022-12-05T21:56:51.565Z,56.49
2022-12-05T21:59:25.494Z,56.49
2022-12-05T22:01:58.740Z,56.50
2022-12-05T22:04:31.875Z,56.49
2022-12-05T22:07:05.171Z,56.52
2022-12-05T22:09:39.083Z,56.56
2022-12-05T22:12:12.362Z,56.68
2022-12-05T22:14:45.536Z,56.78
2022-12-05T22:17:18.892Z,56.97
2022-12-05T22:19:51.938Z,56.97
2022-12-05T22:22:25.328Z,57.00
2022-12-05T22:24:59.249Z,56.90
2022-12-05T22:27:34.199Z,56.87
2022-12-05T22:30:09.935Z,56.81
2022-12-05T22:32:43.235Z,56.84
2022-12-05T22:35:16.551Z,56.90
2022-12-05T22:37:49.770Z,56.95
2022-12-05T22:40:22.975Z,56.91
2022-12-05T22:42:56.340Z,56.88
2022-12-05T22:45:29.523Z,56.84
2022-12-05T22:48:02.634Z,56.83
2022-12-05T22:50:35.536Z,56.79
2022-12-05T22:53:08.728Z,56.73
2022-12-05T22:55:41.715Z,56.78
2022-12-05T22:58:15.705Z,56.75
2022-12-05T23:00:49.288Z,56.80
2022-12-05T23:03:22.618Z,56.80
2022-12-05T23:05:55.784Z,56.71
2022-12-05T23:08:28.900Z,56.66
2022-12-05T23:11:03.060Z,56.58
2022-12-05T23:13:37.699Z,56.54
2022-12-05T23:16:14.186Z,56.54
2022-12-05T23:18:50.193Z,56.51
2022-12-05T23:21:25.468Z,56.46
2022-12-05T23:24:00.447Z,56.42
2022-12-05T23:26:36.505Z,56.37
2022-12-05T23:29:10.165Z,56.42
2022-12-05T23:31:44.119Z,56.48
2022-12-05T23:34:17.213Z,56.54
2022-12-05T23:36:50.406Z,56.63
2022-12-05T23:39:23.825Z,56.57
2022-12-05T23:41:57.170Z,56.59
2022-12-05T23:44:30.280Z,56.57
2022-12-05T23:47:03.498Z,56.57
2022-12-05T23:49:36.678Z,56.51
2022-12-05T23:52:10.273Z,56.49
2022-12-05T23:54:45.362Z,56.46
2022-12-05T23:57:18.700Z,56.44
2022-12-05T23:59:51.967Z,56.45
